createdAt,value
2023-10-13T00:01:50.076Z,95927.03
2023-10-13T00:04:16.871Z,95928.84
2023-10-13T00:06:43.423Z,95929.25
2023-10-13T00:09:09.864Z,95925.94
2023-10-13T00:11:36.284Z,95916.47
2023-10-13T00:14:02.820Z,95922.44
2023-10-13T00:16:29.242Z,95918.31
2023-10-13T00:18:56.120Z,95920.38
2023-10-13T00:21:22.601Z,95927.75
2023-10-13T00:23:49.118Z,95927.34
2023-10-13T00:26:15.539Z,95921.25
2023-10-13T00:28:41.964Z,95926.56
2023-10-13T00:31:08.552Z,95925.16
2023-10-13T00:33:35.030Z,95918.63
2023-10-13T00:36:01.458Z,95921.28
2023-10-13T00:38:28.016Z,95921.72
2023-10-13T00:40:54.377Z,95927.50
2023-10-13T00:43:22.940Z,95922.56
2023-10-13T00:45:54.794Z,95917.25
2023-10-13T00:48:33.209Z,95912.75
2023-10-13T00:51:08.094Z,95913.13
2023-10-13T00:53:37.092Z,95910.50
2023-10-13T00:56:04.006Z,95908.63
2023-10-13T00:58:30.637Z,95915.22
2023-10-13T01:00:57.792Z,95911.13
2023-10-13T01:03:24.835Z,95911.56
2023-10-13T01:05:51.294Z,95912.38
2023-10-13T01:08:17.683Z,95902.16
2023-10-13T01:10:44.142Z,95906.69
2023-10-13T01:13:10.620Z,95902.59
2023-10-13T01:15:37.089Z,95904.66
2023-10-13T01:18:11.024Z,95905.47
2023-10-13T01:20:38.516Z,95900.16
2023-10-13T01:23:09.109Z,95897.31
2023-10-13T01:25:35.617Z,95900.56
2023-10-13T01:28:02.002Z,95891.97
2023-10-13T01:30:28.401Z,95890.94
2023-10-13T01:32:54.980Z,95891.59
2023-10-13T01:35:21.610Z,95888.59
2023-10-13T01:37:48.080Z,95887.13
2023-10-13T01:40:14.554Z,95881.59
2023-10-13T01:42:40.994Z,95880.22
2023-10-13T01:45:07.796Z,95888.22
2023-10-13T01:47:34.567Z,95881.41
2023-10-13T01:50:01.192Z,95880.78
2023-10-13T01:52:27.742Z,95881.38
2023-10-13T01:54:54.236Z,95876.88
2023-10-13T01:57:20.683Z,95882.38
2023-10-13T01:59:50.916Z,95876.66
2023-10-13T02:02:17.975Z,95879.72
2023-10-13T02:04:44.748Z,95878.13
2023-10-13T02:07:11.410Z,95884.63
2023-10-13T02:09:38.081Z,95882.38
2023-10-13T02:12:04.950Z,95883.44
2023-10-13T02:14:31.490Z,95875.25
2023-10-13T02:16:58.370Z,95879.72
2023-10-13T02:19:25.139Z,95878.69
2023-10-13T02:21:51.770Z,95876.47
2023-10-13T02:24:18.355Z,95872.78
2023-10-13T02:26:48.184Z,95870.00
2023-10-13T02:29:15.082Z,95865.88
2023-10-13T02:31:44.750Z,95866.28
2023-10-13T02:34:11.511Z,95867.94
2023-10-13T02:36:39.926Z,95858.50
2023-10-13T02:39:06.756Z,95865.03
2023-10-13T02:41:33.157Z,95865.06
2023-10-13T02:43:59.698Z,95861.59
2023-10-13T02:46:26.226Z,95854.16
2023-10-13T02:48:52.658Z,95854.78
2023-10-13T02:51:19.066Z,95857.25
2023-10-13T02:53:47.034Z,95855.63
2023-10-13T02:56:14.085Z,95850.28
2023-10-13T02:58:42.193Z,95855.22
2023-10-13T03:01:09.935Z,95850.69
2023-10-13T03:03:36.426Z,95854.59
2023-10-13T03:06:02.899Z,95852.34
2023-10-13T03:08:29.444Z,95846.78
2023-10-13T03:10:56.052Z,95852.13
2023-10-13T03:13:22.586Z,95844.94
2023-10-13T03:15:49.083Z,95842.47
2023-10-13T03:18:15.686Z,95843.34
2023-10-13T03:20:42.233Z,95839.00
2023-10-13T03:23:08.749Z,95844.72
2023-10-13T03:25:35.222Z,95838.38
2023-10-13T03:28:02.672Z,95833.88
2023-10-13T03:30:29.580Z,95834.91
2023-10-13T03:32:56.011Z,95833.06
2023-10-13T03:35:22.850Z,95829.78
2023-10-13T03:37:49.677Z,95829.00
2023-10-13T03:40:16.671Z,95833.91
2023-10-13T03:42:43.327Z,95829.00
2023-10-13T03:45:10.376Z,95820.59
2023-10-13T03:47:36.993Z,95825.31
2023-10-13T03:50:04.138Z,95818.56
2023-10-13T03:52:30.965Z,95817.53
2023-10-13T03:54:57.936Z,95809.13
2023-10-13T03:57:24.447Z,95814.66
2023-10-13T03:59:50.964Z,95807.28
2023-10-13T04:02:17.542Z,95816.31
2023-10-13T04:04:44.339Z,95808.94
2023-10-13T04:07:11.189Z,95809.38
2023-10-13T04:09:38.970Z,95805.47
2023-10-13T04:12:07.659Z,95807.31
2023-10-13T04:14:36.457Z,95806.72
2023-10-13T04:17:03.138Z,95801.97
2023-10-13T04:19:30.007Z,95804.88
2023-10-13T04:21:56.657Z,95797.13
2023-10-13T04:24:23.404Z,95797.94
2023-10-13T04:26:52.360Z,95797.13
2023-10-13T04:29:19.298Z,95796.09
2023-10-13T04:31:45.953Z,95796.09
2023-10-13T04:34:12.583Z,95787.31
2023-10-13T04:36:39.267Z,95797.97
2023-10-13T04:39:05.985Z,95785.28
2023-10-13T04:41:38.002Z,95790.78
2023-10-13T04:44:05.580Z,95793.88
2023-10-13T04:46:32.704Z,95787.72
2023-10-13T04:48:59.375Z,95793.47
2023-10-13T04:51:25.907Z,95786.50
2023-10-13T04:53:52.655Z,95783.25
2023-10-13T04:56:19.157Z,95786.94
2023-10-13T04:58:45.586Z,95781.78
2023-10-13T05:01:12.235Z,95788.13
2023-10-13T05:03:38.749Z,95786.50
2023-10-13T05:06:07.164Z,95783.63
2023-10-13T05:08:33.542Z,95782.81
2023-10-13T05:11:05.829Z,95791.00
2023-10-13T05:13:32.452Z,95789.38
2023-10-13T05:15:59.289Z,95786.94
2023-10-13T05:18:25.866Z,95785.69
2023-10-13T05:20:56.609Z,95791.63
2023-10-13T05:23:23.163Z,95790.19
2023-10-13T05:25:49.648Z,95786.31
2023-10-13T05:28:22.817Z,95791.44
2023-10-13T05:31:00.388Z,95796.34
2023-10-13T05:33:26.994Z,95786.50
2023-10-13T05:35:53.488Z,95795.09
2023-10-13T05:38:20.050Z,95795.94
2023-10-13T05:41:01.171Z,95799.59
2023-10-13T05:43:27.741Z,95801.88
2023-10-13T05:46:05.707Z,95803.28
2023-10-13T05:48:32.816Z,95795.28
2023-10-13T05:51:01.989Z,95799.59
2023-10-13T05:53:28.438Z,95801.88
2023-10-13T05:56:01.122Z,95806.59
2023-10-13T05:58:28.195Z,95800.81
2023-10-13T06:00:55.584Z,95805.13
2023-10-13T06:03:28.569Z,95799.81
2023-10-13T06:05:55.396Z,95804.94
2023-10-13T06:08:21.916Z,95801.44
2023-10-13T06:10:50.338Z,95805.31
2023-10-13T06:13:17.086Z,95810.66
2023-10-13T06:15:43.800Z,95816.38
2023-10-13T06:18:12.602Z,95811.03
2023-10-13T06:20:41.491Z,95816.78
2023-10-13T06:23:08.233Z,95817.38
2023-10-13T06:25:35.490Z,95817.59
2023-10-13T06:28:02.320Z,95821.28
2023-10-13T06:30:28.892Z,95822.09
2023-10-13T06:32:55.319Z,95822.50
2023-10-13T06:35:21.916Z,95816.16
2023-10-13T06:37:48.624Z,95827.41
2023-10-13T06:40:15.363Z,95830.69
2023-10-13T06:42:41.967Z,95825.75
2023-10-13T06:45:09.223Z,95829.03
2023-10-13T06:47:37.298Z,95825.09
2023-10-13T06:50:03.925Z,95824.88
2023-10-13T06:52:31.105Z,95820.78
2023-10-13T06:54:58.000Z,95815.47
2023-10-13T06:57:24.802Z,95823.66
2023-10-13T06:59:51.465Z,95825.28
2023-10-13T07:02:27.580Z,95823.63
2023-10-13T07:04:56.120Z,95829.72
2023-10-13T07:07:22.951Z,95830.53
2023-10-13T07:09:49.526Z,95834.59
2023-10-13T07:12:16.387Z,95832.53
2023-10-13T07:14:47.427Z,95835.34
2023-10-13T07:17:14.053Z,95828.53
2023-10-13T07:19:40.694Z,95829.28
2023-10-13T07:22:07.282Z,95827.00
2023-10-13T07:24:37.510Z,95834.78
2023-10-13T07:27:04.394Z,95826.50
2023-10-13T07:29:31.121Z,95826.84
2023-10-13T07:31:57.798Z,95833.94
2023-10-13T07:34:24.342Z,95839.84
2023-10-13T07:36:55.641Z,95823.72
2023-10-13T07:39:23.595Z,95831.00
2023-10-13T07:41:51.824Z,95832.63
2023-10-13T07:44:19.798Z,95836.97
2023-10-13T07:46:46.983Z,95831.94
2023-10-13T07:49:13.583Z,95833.56
2023-10-13T07:51:40.100Z,95837.91
2023-10-13T07:54:06.692Z,95842.38
2023-10-13T07:56:33.344Z,95844.44
2023-10-13T07:59:01.568Z,95836.75
2023-10-13T08:01:29.686Z,95830.41
2023-10-13T08:03:56.384Z,95834.66
2023-10-13T08:06:23.123Z,95838.56
2023-10-13T08:08:50.031Z,95840.06
2023-10-13T08:11:18.382Z,95830.75
2023-10-13T08:13:59.610Z,95836.50
2023-10-13T08:16:31.206Z,95837.09
2023-10-13T08:18:57.795Z,95831.41
2023-10-13T08:21:24.539Z,95836.47
2023-10-13T08:23:52.257Z,95834.41
2023-10-13T08:26:18.913Z,95833.13
2023-10-13T08:28:56.738Z,95830.03
2023-10-13T08:31:24.787Z,95830.13
2023-10-13T08:33:51.368Z,95828.25
2023-10-13T08:36:17.884Z,95823.50
2023-10-13T08:38:44.443Z,95823.50
2023-10-13T08:41:11.222Z,95820.28
2023-10-13T08:43:43.463Z,95811.81
2023-10-13T08:46:10.928Z,95817.47
2023-10-13T08:48:37.865Z,95813.97
2023-10-13T08:51:06.560Z,95807.47
2023-10-13T08:53:33.661Z,95812.75
2023-10-13T08:56:00.215Z,95808.06
2023-10-13T08:58:26.903Z,95801.94
2023-10-13T09:00:55.522Z,95798.19
2023-10-13T09:03:22.360Z,95805.78
2023-10-13T09:05:49.106Z,95807.88
2023-10-13T09:08:26.038Z,95805.66
2023-10-13T09:10:52.691Z,95809.38
2023-10-13T09:13:19.299Z,95813.22
2023-10-13T09:15:46.033Z,95811.94
2023-10-13T09:18:12.646Z,95816.50
2023-10-13T09:20:40.038Z,95815.19
2023-10-13T09:23:11.805Z,95808.56
2023-10-13T09:25:40.019Z,95813.69
2023-10-13T09:28:16.252Z,95804.16
2023-10-13T09:30:51.129Z,95800.16
2023-10-13T09:33:37.301Z,95795.19
2023-10-13T09:36:04.900Z,95803.22
2023-10-13T09:38:36.261Z,95800.19
2023-10-13T09:41:06.112Z,95797.47
2023-10-13T09:43:32.891Z,95798.09
2023-10-13T09:46:01.179Z,95793.44
2023-10-13T09:48:34.539Z,95786.75
2023-10-13T09:51:03.919Z,95784.28
2023-10-13T09:53:33.099Z,95783.16
2023-10-13T09:56:13.674Z,95779.69
2023-10-13T09:58:56.671Z,95778.16
2023-10-13T10:01:29.517Z,95786.81
2023-10-13T10:03:56.282Z,95780.97
2023-10-13T10:06:24.360Z,95773.13
2023-10-13T10:08:50.974Z,95777.38
2023-10-13T10:11:35.914Z,95779.66
2023-10-13T10:14:02.517Z,95781.06
2023-10-13T10:16:38.029Z,95772.50
2023-10-13T10:19:04.429Z,95768.81
2023-10-13T10:21:37.698Z,95769.19
2023-10-13T10:24:15.448Z,95765.66
2023-10-13T10:26:52.951Z,95764.97
2023-10-13T10:29:19.643Z,95767.28
2023-10-13T10:31:48.083Z,95746.31
2023-10-13T10:34:16.925Z,95745.84
2023-10-13T10:36:47.096Z,95742.13
2023-10-13T10:39:13.921Z,95753.78
2023-10-13T10:41:40.288Z,95748.06
2023-10-13T10:44:17.053Z,95740.66
2023-10-13T10:46:44.603Z,95739.59
2023-10-13T10:49:11.035Z,95739.53
2023-10-13T10:51:46.434Z,95736.13
2023-10-13T10:54:21.096Z,95730.50
2023-10-13T10:56:48.169Z,95731.53
2023-10-13T10:59:14.555Z,95718.91
2023-10-13T11:01:45.579Z,95721.69
2023-10-13T11:04:12.586Z,95715.91
2023-10-13T11:06:47.752Z,95712.97
2023-10-13T11:09:14.416Z,95708.38
2023-10-13T11:11:40.979Z,95710.34
2023-10-13T11:14:07.743Z,95704.41
2023-10-13T11:16:34.243Z,95697.25
2023-10-13T11:19:05.000Z,95700.34
2023-10-13T11:21:31.791Z,95690.38
2023-10-13T11:24:00.949Z,95689.69
2023-10-13T11:26:35.041Z,95685.94
2023-10-13T11:29:01.516Z,95677.91
2023-10-13T11:31:28.009Z,95674.41
2023-10-13T11:33:54.507Z,95676.94
2023-10-13T11:36:20.892Z,95677.25
2023-10-13T11:38:47.248Z,95681.00
2023-10-13T11:41:13.668Z,95676.38
2023-10-13T11:43:44.125Z,95684.41
2023-10-13T11:46:18.439Z,95682.06
2023-10-13T11:48:46.600Z,95678.63
2023-10-13T11:51:15.077Z,95678.34
2023-10-13T11:53:41.426Z,95674.28
2023-10-13T11:56:09.889Z,95663.00
2023-10-13T11:58:37.356Z,95663.66
2023-10-13T12:01:04.043Z,95659.59
2023-10-13T12:03:30.540Z,95664.03
2023-10-13T12:05:59.577Z,95654.66
2023-10-13T12:08:25.983Z,95652.09
2023-10-13T12:10:52.453Z,95659.81
2023-10-13T12:13:18.864Z,95649.41
2023-10-13T12:15:45.435Z,95644.22
2023-10-13T12:18:12.021Z,95636.72
2023-10-13T12:20:38.598Z,95630.78
2023-10-13T12:23:05.098Z,95636.72
2023-10-13T12:25:33.014Z,95617.81
2023-10-13T12:27:59.797Z,95623.06
2023-10-13T12:30:26.736Z,95620.69
2023-10-13T12:32:53.297Z,95612.53
2023-10-13T12:35:19.900Z,95617.25
2023-10-13T12:37:46.734Z,95610.97
2023-10-13T12:40:15.407Z,95601.06
2023-10-13T12:42:41.983Z,95598.59
2023-10-13T12:45:08.597Z,95598.41
2023-10-13T12:47:35.235Z,95602.16
2023-10-13T12:50:02.253Z,95594.72
2023-10-13T12:52:29.074Z,95588.88
2023-10-13T12:54:55.856Z,95586.44
2023-10-13T12:57:22.835Z,95587.09
2023-10-13T12:59:50.314Z,95580.41
2023-10-13T13:02:17.076Z,95578.34
2023-10-13T13:04:43.704Z,95572.09
2023-10-13T13:07:10.376Z,95575.91
2023-10-13T13:09:36.747Z,95565.91
2023-10-13T13:12:03.253Z,95560.69
2023-10-13T13:14:29.618Z,95562.00
2023-10-13T13:16:59.272Z,95552.50
2023-10-13T13:19:25.841Z,95553.06
2023-10-13T13:21:52.363Z,95549.88
2023-10-13T13:24:18.832Z,95549.63
2023-10-13T13:26:45.524Z,95542.66
2023-10-13T13:29:11.973Z,95538.69
2023-10-13T13:31:38.576Z,95541.50
2023-10-13T13:34:04.970Z,95532.44
2023-10-13T13:36:31.408Z,95528.66
2023-10-13T13:38:57.814Z,95526.31
2023-10-13T13:41:24.210Z,95516.34
2023-10-13T13:43:51.559Z,95510.94
2023-10-13T13:46:18.951Z,95510.94
2023-10-13T13:48:46.337Z,95518.22
2023-10-13T13:51:12.810Z,95502.81
2023-10-13T13:53:39.336Z,95508.97
2023-10-13T13:56:05.955Z,95509.13
2023-10-13T13:58:32.540Z,95495.00
2023-10-13T14:01:05.116Z,95484.03
2023-10-13T14:03:31.859Z,95483.38
2023-10-13T14:05:59.854Z,95470.38
2023-10-13T14:08:27.414Z,95495.13
2023-10-13T14:10:54.767Z,95483.56
2023-10-13T14:13:21.204Z,95476.28
2023-10-13T14:15:47.664Z,95478.22
2023-10-13T14:18:16.536Z,95481.31
2023-10-13T14:20:44.474Z,95478.00
2023-10-13T14:23:10.947Z,95474.63
2023-10-13T14:25:37.401Z,95478.09
2023-10-13T14:28:06.937Z,95479.91
2023-10-13T14:30:34.376Z,95476.97
2023-10-13T14:33:00.994Z,95453.34
2023-10-13T14:35:27.764Z,95477.91
2023-10-13T14:37:54.542Z,95467.59
2023-10-13T14:40:21.120Z,95463.69
2023-10-13T14:42:47.844Z,95455.47
2023-10-13T14:45:15.093Z,95452.94
2023-10-13T14:47:42.442Z,95450.56
2023-10-13T14:50:10.967Z,95449.56
2023-10-13T14:52:37.512Z,95451.09
2023-10-13T14:55:04.190Z,95450.25
2023-10-13T14:57:30.704Z,95442.78
2023-10-13T14:59:57.544Z,95445.09
2023-10-13T15:02:24.432Z,95447.50
2023-10-13T15:04:51.337Z,95446.06
2023-10-13T15:07:18.381Z,95445.91
2023-10-13T15:09:45.434Z,95439.63
2023-10-13T15:12:14.673Z,95448.78
2023-10-13T15:14:43.024Z,95437.31
2023-10-13T15:17:12.362Z,95438.16
2023-10-13T15:19:38.871Z,95429.81
2023-10-13T15:22:06.072Z,95441.66
2023-10-13T15:24:34.143Z,95434.00
2023-10-13T15:27:00.802Z,95434.41
2023-10-13T15:29:27.317Z,95420.75
2023-10-13T15:31:56.734Z,95419.38
2023-10-13T15:34:23.296Z,95415.38
2023-10-13T15:36:50.181Z,95409.59
2023-10-13T15:39:16.602Z,95412.44
2023-10-13T15:41:43.380Z,95406.63
2023-10-13T15:44:13.049Z,95416.22
2023-10-13T15:49:15.026Z,95414.34
2023-10-13T15:51:42.966Z,95411.69
2023-10-13T15:54:09.499Z,95414.88
2023-10-13T15:56:35.868Z,95411.66
2023-10-13T15:59:02.738Z,95417.09
2023-10-13T16:01:29.684Z,95424.00
2023-10-13T16:03:56.275Z,95417.13
2023-10-13T16:06:22.751Z,95416.63
2023-10-13T16:08:49.117Z,95414.41
2023-10-13T16:11:16.076Z,95422.53
2023-10-13T16:13:46.661Z,95418.50
2023-10-13T16:16:17.074Z,95422.41
2023-10-13T16:18:47.012Z,95427.59
2023-10-13T16:21:14.197Z,95429.75
2023-10-13T16:23:41.012Z,95425.06
2023-10-13T16:26:08.672Z,95429.19
2023-10-13T16:28:39.199Z,95429.13
2023-10-13T16:31:09.628Z,95428.00
2023-10-13T16:33:36.543Z,95423.53
2023-10-13T16:36:07.077Z,95426.06
2023-10-13T16:38:33.910Z,95426.09
2023-10-13T16:41:00.424Z,95432.78
2023-10-13T16:43:27.024Z,95441.44
2023-10-13T16:45:53.630Z,95440.69
2023-10-13T16:48:20.273Z,95426.03
2023-10-13T16:50:47.075Z,95444.25
2023-10-13T16:53:13.631Z,95447.44
2023-10-13T16:55:41.779Z,95453.94
2023-10-13T16:58:12.277Z,95450.47
2023-10-13T17:00:40.403Z,95461.72
2023-10-13T17:03:07.237Z,95457.22
2023-10-13T17:05:43.773Z,95461.97
2023-10-13T17:08:10.751Z,95476.94
2023-10-13T17:10:38.763Z,95460.72
2023-10-13T17:13:06.687Z,95459.09
2023-10-13T17:15:35.284Z,95457.59
2023-10-13T17:18:03.117Z,95452.28
2023-10-13T17:20:29.667Z,95455.06
2023-10-13T17:22:56.405Z,95460.59
2023-10-13T17:25:23.854Z,95467.13
2023-10-13T17:27:50.475Z,95473.47
2023-10-13T17:30:16.968Z,95471.13
2023-10-13T17:32:43.612Z,95474.56
2023-10-13T17:35:10.166Z,95475.13
2023-10-13T17:37:36.851Z,95479.91
2023-10-13T17:40:03.833Z,95484.50
2023-10-13T17:42:31.166Z,95487.09
2023-10-13T17:44:58.014Z,95485.56
2023-10-13T17:47:25.002Z,95488.41
2023-10-13T17:49:51.576Z,95488.03
2023-10-13T17:52:18.358Z,95489.03
2023-10-13T17:54:46.822Z,95498.50
2023-10-13T17:57:17.846Z,95490.66
2023-10-13T17:59:44.464Z,95497.19
2023-10-13T18:02:12.029Z,95494.09
2023-10-13T18:04:45.117Z,95507.81
2023-10-13T18:07:11.806Z,95514.06
2023-10-13T18:09:39.320Z,95513.00
2023-10-13T18:12:08.482Z,95513.06
2023-10-13T18:14:35.745Z,95519.41
2023-10-13T18:19:32.584Z,95518.69
2023-10-13T18:24:25.789Z,95518.50
2023-10-13T18:26:52.485Z,95514.59
2023-10-13T18:29:19.134Z,95525.28
2023-10-13T18:31:45.713Z,95523.97
2023-10-13T18:34:12.403Z,95515.75
2023-10-13T18:36:39.028Z,95501.91
2023-10-13T18:39:05.606Z,95513.66
2023-10-13T18:41:32.442Z,95520.50
2023-10-13T18:43:59.050Z,95512.94
2023-10-13T18:46:25.751Z,95522.00
2023-10-13T18:48:52.774Z,95517.50
2023-10-13T18:51:22.047Z,95513.78
2023-10-13T18:53:49.973Z,95516.66
2023-10-13T18:56:22.609Z,95518.78
2023-10-13T18:58:51.961Z,95523.88
2023-10-13T19:01:19.672Z,95521.31
2023-10-13T19:03:46.926Z,95521.56
2023-10-13T19:06:13.416Z,95510.84
2023-10-13T19:08:39.826Z,95528.53
2023-10-13T19:11:07.775Z,95514.81
2023-10-13T19:13:34.460Z,95509.72
2023-10-13T19:16:04.856Z,95510.66
2023-10-13T19:18:31.467Z,95512.28
2023-10-13T19:20:58.036Z,95519.94
2023-10-13T19:23:24.542Z,95514.56
2023-10-13T19:25:51.074Z,95515.16
2023-10-13T19:28:17.509Z,95504.94
2023-10-13T19:30:44.000Z,95496.75
2023-10-13T19:33:10.600Z,95496.09
2023-10-13T19:35:40.587Z,95508.56
2023-10-13T19:38:07.392Z,95505.00
2023-10-13T19:40:34.975Z,95506.88
2023-10-13T19:43:01.484Z,95497.72
2023-10-13T19:45:27.895Z,95499.06
2023-10-13T19:47:54.525Z,95500.47
2023-10-13T19:50:22.984Z,95503.16
2023-10-13T19:52:49.702Z,95490.72
2023-10-13T19:55:16.272Z,95501.59
2023-10-13T19:57:47.114Z,95503.16
2023-10-13T20:00:14.460Z,95501.25
2023-10-13T20:02:41.181Z,95500.19
2023-10-13T20:05:08.318Z,95497.56
2023-10-13T20:07:34.931Z,95509.28
2023-10-13T20:10:01.521Z,95509.34
2023-10-13T20:12:28.319Z,95511.19
2023-10-13T20:14:55.297Z,95506.16
2023-10-13T20:17:22.001Z,95508.41
2023-10-13T20:19:49.457Z,95507.81
2023-10-13T20:22:16.331Z,95520.03
2023-10-13T20:24:43.164Z,95515.38
2023-10-13T20:27:09.772Z,95519.25
2023-10-13T20:29:36.347Z,95519.03
2023-10-13T20:32:02.948Z,95509.38
2023-10-13T20:34:29.519Z,95513.75
2023-10-13T20:36:56.364Z,95527.78
2023-10-13T20:39:23.047Z,95530.47
2023-10-13T20:41:53.069Z,95525.13
2023-10-13T20:44:26.953Z,95515.88
2023-10-13T20:46:54.610Z,95514.59
2023-10-13T20:49:21.443Z,95520.72
2023-10-13T20:51:48.945Z,95524.47
2023-10-13T20:54:15.389Z,95524.38
2023-10-13T20:56:42.063Z,95533.72
2023-10-13T20:59:08.464Z,95523.31
2023-10-13T21:01:35.765Z,95523.88
2023-10-13T21:04:02.451Z,95519.44
2023-10-13T21:06:29.068Z,95529.41
2023-10-13T21:08:55.584Z,95529.06
2023-10-13T21:11:21.984Z,95525.28
2023-10-13T21:13:50.305Z,95523.59
2023-10-13T21:16:18.142Z,95524.81
2023-10-13T21:18:44.878Z,95515.38
2023-10-13T21:21:13.623Z,95514.31
2023-10-13T21:23:42.433Z,95505.78
2023-10-13T21:26:09.026Z,95514.56
2023-10-13T21:28:35.448Z,95513.00
2023-10-13T21:31:09.265Z,95507.22
2023-10-13T21:33:36.089Z,95522.72
2023-10-13T21:36:09.750Z,95515.75
2023-10-13T21:41:05.969Z,95513.19
2023-10-13T21:43:32.342Z,95503.09
2023-10-13T21:46:05.249Z,95502.78
2023-10-13T21:48:31.721Z,95505.03
2023-10-13T21:50:58.305Z,95498.00
2023-10-13T21:53:24.876Z,95505.25
2023-10-13T21:55:51.569Z,95487.91
2023-10-13T21:58:18.203Z,95491.00
2023-10-13T22:00:44.818Z,95487.09
2023-10-13T22:03:11.486Z,95486.69
2023-10-13T22:05:40.411Z,95485.22
2023-10-13T22:08:07.362Z,95486.22
2023-10-13T22:10:34.130Z,95487.38
2023-10-13T22:13:00.789Z,95486.78
2023-10-13T22:15:27.367Z,95492.97
2023-10-13T22:17:54.003Z,95493.13
2023-10-13T22:20:21.186Z,95499.28
2023-10-13T22:22:47.752Z,95490.34
2023-10-13T22:25:14.297Z,95489.84
2023-10-13T22:27:42.890Z,95498.16
2023-10-13T22:30:12.831Z,95504.50
2023-10-13T22:32:39.694Z,95503.03
2023-10-13T22:35:07.357Z,95508.03
2023-10-13T22:37:33.895Z,95510.50
2023-10-13T22:40:00.845Z,95484.75
2023-10-13T22:42:27.827Z,95488.16
2023-10-13T22:44:54.327Z,95487.16
2023-10-13T22:47:21.675Z,95491.19
2023-10-13T22:49:48.198Z,95476.94
2023-10-13T22:52:14.704Z,95495.16
2023-10-13T22:54:41.283Z,95491.91
2023-10-13T22:57:07.836Z,95479.97
2023-10-13T22:59:34.567Z,95482.25
2023-10-13T23:02:01.127Z,95484.50
2023-10-13T23:04:28.522Z,95492.69
2023-10-13T23:06:55.088Z,95475.59
2023-10-13T23:09:21.792Z,95444.88
2023-10-13T23:11:48.459Z,95470.94
2023-10-13T23:14:15.001Z,95486.88
2023-10-13T23:16:41.566Z,95476.75
2023-10-13T23:19:08.369Z,95480.59
2023-10-13T23:21:35.065Z,95479.88
2023-10-13T23:24:01.583Z,95474.94
2023-10-13T23:26:28.122Z,95483.47
2023-10-13T23:28:55.091Z,95490.16
2023-10-13T23:31:23.274Z,95479.94
2023-10-13T23:33:49.859Z,95472.50
2023-10-13T23:36:17.130Z,95488.44
2023-10-13T23:38:45.139Z,95494.09
2023-10-13T23:41:11.656Z,95506.22
2023-10-13T23:43:39.019Z,95501.13
2023-10-13T23:46:05.604Z,95510.41
2023-10-13T23:48:32.968Z,95510.53
2023-10-13T23:51:00.731Z,95511.31
2023-10-13T23:53:32.370Z,95509.09
2023-10-13T23:56:06.947Z,95497.94
2023-10-13T23:58:33.604Z,95510.38
